createdAt,value
2017-08-25T00:00:26.296Z,79.1
2017-08-25T00:01:25.358Z,79.1
2017-08-25T00:02:25.067Z,79
2017-08-25T00:03:24.378Z,79
2017-08-25T00:04:23.319Z,79.2
2017-08-25T00:05:22.757Z,79.6
2017-08-25T00:06:22.460Z,79.8
2017-08-25T00:07:21.393Z,79.7
2017-08-25T00:08:20.835Z,79.9
2017-08-25T00:09:20.258Z,79.6
2017-08-25T00:10:19.562Z,79.9
2017-08-25T00:11:18.735Z,79.6
2017-08-25T00:12:18.172Z,79.8
2017-08-25T00:13:17.491Z,79.5
2017-08-25T00:14:16.557Z,79.5
2017-08-25T00:15:15.989Z,79.4
2017-08-25T00:16:15.175Z,79.5
2017-08-25T00:17:14.616Z,79.6
2017-08-25T00:19:13.059Z,79.7
2017-08-25T00:20:12.626Z,79.6
2017-08-25T00:21:11.816Z,79.5
2017-08-25T00:22:10.988Z,79.3
2017-08-25T00:23:10.426Z,79.4
2017-08-25T00:24:09.855Z,79.1
2017-08-25T00:25:08.920Z,79.2
2017-08-25T00:26:08.226Z,79.4
2017-08-25T00:27:07.667Z,79.6
2017-08-25T00:27:37.913Z,79.6
2017-08-25T00:28:08.289Z,79.4
2017-08-25T00:28:38.661Z,79.4
2017-08-25T00:30:05.157Z,79.1
2017-08-25T00:31:04.970Z,79.2
2017-08-25T00:32:04.148Z,79.2
2017-08-25T00:33:03.450Z,79.3
2017-08-25T00:34:02.750Z,79.4
2017-08-25T00:35:02.198Z,79.3
2017-08-25T00:36:01.141Z,79.2
2017-08-25T00:37:00.460Z,79.3
2017-08-25T00:37:59.770Z,79.2
2017-08-25T00:38:59.211Z,79.3
2017-08-25T00:39:58.527Z,79
2017-08-25T00:40:57.953Z,79.2
2017-08-25T00:41:56.768Z,78.4
2017-08-25T00:42:56.207Z,78.6
2017-08-25T00:43:55.782Z,78.7
2017-08-25T00:44:54.583Z,78.2
2017-08-25T00:45:54.141Z,78
2017-08-25T00:46:53.448Z,77.9
2017-08-25T00:47:53.014Z,78.3
2017-08-25T00:49:51.467Z,78.4
2017-08-25T00:50:50.658Z,78.6
2017-08-25T00:51:49.962Z,78.7
2017-08-25T00:52:49.272Z,78.6
2017-08-25T00:53:48.454Z,78.7
2017-08-25T00:54:48.013Z,78.8
2017-08-25T00:55:47.086Z,78.9
2017-08-25T00:56:46.524Z,79
2017-08-25T00:57:45.837Z,79.1
2017-08-25T00:58:45.141Z,79.2
2017-08-25T00:59:44.446Z,79.3
2017-08-25T01:00:43.505Z,79.4
2017-08-25T01:01:42.831Z,79.6
2017-08-25T01:02:42.143Z,79.5
2017-08-25T01:03:41.833Z,79.7
2017-08-25T01:04:40.636Z,79.9
2017-08-25T01:05:40.199Z,80
2017-08-25T01:06:39.511Z,79.7
2017-08-25T01:07:38.825Z,79.8
2017-08-25T01:08:37.883Z,80
2017-08-25T01:09:37.071Z,79.7
2017-08-25T01:10:36.628Z,80
2017-08-25T01:11:35.931Z,80.1
2017-08-25T01:12:35.119Z,80.6
2017-08-25T01:13:34.300Z,80.4
2017-08-25T01:14:33.731Z,80.6
2017-08-25T01:15:33.306Z,80.3
2017-08-25T01:16:32.487Z,81.2
2017-08-25T01:17:31.421Z,81.6
2017-08-25T01:18:31.238Z,81.5
2017-08-25T01:19:30.307Z,81.7
2017-08-25T01:20:29.738Z,81.9
2017-08-25T01:21:28.793Z,81.8
2017-08-25T01:22:28.365Z,81.8
2017-08-25T01:23:27.427Z,81.6
2017-08-25T01:24:26.622Z,82.2
2017-08-25T01:25:25.954Z,82.1
2017-08-25T01:27:24.772Z,81.8
2017-08-25T01:28:24.194Z,82.4
2017-08-25T01:29:23.063Z,82.3
2017-08-25T01:30:22.362Z,82.4
2017-08-25T01:31:21.804Z,82.4
2017-08-25T01:32:21.105Z,82.5
2017-08-25T01:33:20.697Z,83.1
2017-08-25T01:34:19.774Z,83.3
2017-08-25T01:35:18.838Z,83.3
2017-08-25T01:36:18.153Z,83.5
2017-08-25T01:37:17.464Z,83.7
2017-08-25T01:38:17.155Z,83.7
2017-08-25T01:39:15.964Z,83.8
2017-08-25T01:40:15.391Z,83.8
2017-08-25T01:41:14.576Z,84
2017-08-25T01:42:14.012Z,83.8
2017-08-25T01:43:13.372Z,84.2
2017-08-25T01:44:12.818Z,84.2
2017-08-25T01:45:11.619Z,84.4
2017-08-25T01:46:11.307Z,84.3
2017-08-25T01:47:10.493Z,84.5
2017-08-25T01:48:09.936Z,84.8
2017-08-25T01:49:09.257Z,84.7
2017-08-25T01:50:08.450Z,84.7
2017-08-25T01:51:07.756Z,84.4
2017-08-25T01:52:07.083Z,84.5
2017-08-25T01:53:06.396Z,84.8
2017-08-25T01:54:05.332Z,84.7
2017-08-25T01:55:04.905Z,84.4
2017-08-25T01:57:03.106Z,84.5
2017-08-25T01:58:02.798Z,84.5
2017-08-25T01:59:01.979Z,84.5
2017-08-25T02:00:01.410Z,84.7
2017-08-25T02:01:00.348Z,84.6
2017-08-25T02:01:59.540Z,84.7
2017-08-25T02:02:58.979Z,84.7
2017-08-25T02:03:58.293Z,84.8
2017-08-25T02:04:57.598Z,84.8
2017-08-25T02:05:57.042Z,85.2
2017-08-25T02:06:56.343Z,85
2017-08-25T02:07:55.407Z,85
2017-08-25T02:08:54.839Z,85
2017-08-25T02:09:54.016Z,85.2
2017-08-25T02:11:52.707Z,85.3
2017-08-25T02:12:51.637Z,85
2017-08-25T02:13:51.209Z,85.1
2017-08-25T02:14:50.529Z,85.5
2017-08-25T02:15:49.717Z,85.2
2017-08-25T02:16:49.034Z,85.1
2017-08-25T02:17:48.346Z,85.3
2017-08-25T02:18:47.781Z,85.4
2017-08-25T02:20:45.964Z,85.4
2017-08-25T02:21:45.269Z,85.6
2017-08-25T02:22:44.692Z,85.8
2017-08-25T02:23:43.995Z,85.8
2017-08-25T02:24:43.430Z,85.6
2017-08-25T02:26:42.009Z,85.9
2017-08-25T02:27:40.950Z,85.7
2017-08-25T02:28:40.509Z,85.5
2017-08-25T02:29:39.948Z,85.5
2017-08-25T02:30:39.130Z,85.2
2017-08-25T02:31:38.061Z,85.1
2017-08-25T02:32:37.518Z,85.4
2017-08-25T02:33:37.104Z,85.2
2017-08-25T02:34:36.184Z,85.5
2017-08-25T02:35:35.497Z,85.6
2017-08-25T02:36:34.688Z,85.5
2017-08-25T02:37:34.149Z,85.3
2017-08-25T02:38:33.207Z,85.5
2017-08-25T02:39:32.513Z,85.4
2017-08-25T02:40:31.832Z,85.3
2017-08-25T02:41:31.162Z,85.3
2017-08-25T02:42:30.364Z,85.2
2017-08-25T02:43:29.680Z,85.2
2017-08-25T02:44:28.896Z,84.9
2017-08-25T02:45:28.470Z,85.2
2017-08-25T02:46:27.401Z,85
2017-08-25T02:47:26.719Z,84.9
2017-08-25T02:48:26.015Z,84.7
2017-08-25T02:49:25.446Z,85.1
2017-08-25T02:50:24.886Z,84.9
2017-08-25T02:51:23.826Z,84.9
2017-08-25T02:52:23.017Z,84.8
2017-08-25T02:53:22.329Z,84.8
2017-08-25T02:54:21.642Z,84.5
2017-08-25T02:55:20.957Z,85
2017-08-25T02:56:20.535Z,85.1
2017-08-25T02:57:19.726Z,84.7
2017-08-25T02:58:18.917Z,85.3
2017-08-25T02:59:18.230Z,85
2017-08-25T03:00:17.420Z,84.9
2017-08-25T03:02:16.243Z,84.9
2017-08-25T03:03:15.174Z,85.2
2017-08-25T03:04:14.628Z,85.1
2017-08-25T03:05:13.997Z,84.9
2017-08-25T03:06:12.819Z,85
2017-08-25T03:07:12.249Z,85.3
2017-08-25T03:08:11.956Z,85.2
2017-08-25T03:09:10.895Z,85
2017-08-25T03:10:10.205Z,84.9
2017-08-25T03:11:09.400Z,84.8
2017-08-25T03:13:07.739Z,84.7
2017-08-25T03:14:07.425Z,84.9
2017-08-25T03:15:06.364Z,84.7
2017-08-25T03:16:05.818Z,84.5
2017-08-25T03:17:05.319Z,84.2
2017-08-25T03:18:04.518Z,84.7
2017-08-25T03:19:03.708Z,84.9
2017-08-25T03:20:03.032Z,85
2017-08-25T03:21:02.357Z,84.6
2017-08-25T03:22:01.664Z,84.5
2017-08-25T03:23:00.976Z,84.7
2017-08-25T03:24:00.412Z,84.5
2017-08-25T03:24:59.094Z,84.3
2017-08-25T03:25:58.524Z,84.2
2017-08-25T03:26:57.964Z,84.4
2017-08-25T03:27:57.537Z,84.7
2017-08-25T03:29:55.487Z,84.4
2017-08-25T03:30:55.177Z,84.5
2017-08-25T03:31:54.629Z,84.6
2017-08-25T03:32:53.698Z,84.9
2017-08-25T03:33:52.891Z,84.6
2017-08-25T03:34:52.335Z,84.9
2017-08-25T03:35:51.656Z,84.9
2017-08-25T03:36:50.845Z,84.9
2017-08-25T03:37:50.294Z,85.3
2017-08-25T03:38:49.103Z,85
2017-08-25T03:39:48.430Z,85.1
2017-08-25T03:40:47.865Z,85.3
2017-08-25T03:41:47.187Z,85.4
2017-08-25T03:42:46.502Z,85.3
2017-08-25T03:44:45.081Z,85.2
2017-08-25T03:45:44.400Z,85.4
2017-08-25T03:46:43.325Z,85.4
2017-08-25T03:48:42.292Z,85.6
2017-08-25T03:50:40.369Z,86.1
2017-08-25T03:51:39.939Z,86.1
2017-08-25T03:52:39.004Z,86
2017-08-25T03:53:38.577Z,86.3
2017-08-25T03:54:38.021Z,86.1
2017-08-25T03:55:36.834Z,86
2017-08-25T03:56:36.025Z,86.5
2017-08-25T03:57:35.727Z,86
2017-08-25T03:58:34.537Z,85.9
2017-08-25T03:59:34.347Z,86.1
2017-08-25T04:00:33.233Z,85.8
2017-08-25T04:01:32.672Z,85.8
2017-08-25T04:02:31.884Z,85.6
2017-08-25T04:03:31.327Z,85.6
2017-08-25T04:04:30.518Z,85.2
2017-08-25T04:05:29.951Z,85.1
2017-08-25T04:06:28.901Z,85.1
2017-08-25T04:07:28.483Z,85.3
2017-08-25T04:08:27.793Z,85.7
2017-08-25T04:09:26.983Z,85.5
2017-08-25T04:10:25.945Z,85.7
2017-08-25T04:11:25.380Z,85.5
2017-08-25T04:12:24.570Z,85.3
2017-08-25T04:13:24.010Z,85.2
2017-08-25T04:14:23.461Z,85.3
2017-08-25T04:15:22.392Z,85.6
2017-08-25T04:16:21.835Z,85.5
2017-08-25T04:17:21.284Z,85.6
2017-08-25T04:18:20.606Z,85.4
2017-08-25T04:19:19.670Z,85.7
2017-08-25T04:20:18.733Z,85.6
2017-08-25T04:21:17.803Z,85.8
2017-08-25T04:22:17.114Z,85.7
2017-08-25T04:23:16.433Z,85.6
2017-08-25T04:24:15.752Z,85.6
2017-08-25T04:25:15.200Z,85.8
2017-08-25T04:26:14.514Z,85.8
2017-08-25T04:27:13.707Z,85.9
2017-08-25T04:28:12.904Z,86.3
2017-08-25T04:29:12.465Z,86
2017-08-25T04:30:11.654Z,85.7
2017-08-25T04:31:10.973Z,85.6
2017-08-25T04:32:10.288Z,86.1
2017-08-25T04:33:09.355Z,86.1
2017-08-25T04:34:08.547Z,86.1
2017-08-25T04:35:07.727Z,86
2017-08-25T04:36:07.027Z,85.9
2017-08-25T04:37:06.462Z,86.1
2017-08-25T04:38:05.774Z,86.1
2017-08-25T04:40:04.091Z,86.1
2017-08-25T04:41:03.532Z,86
2017-08-25T04:42:03.090Z,85.8
2017-08-25T04:43:02.147Z,85.7
2017-08-25T04:44:01.460Z,85.3
2017-08-25T04:45:00.663Z,85.3
2017-08-25T04:45:59.725Z,85.2
2017-08-25T04:46:59.295Z,85.3
2017-08-25T04:47:58.620Z,85.7
2017-08-25T04:48:57.798Z,85.4
2017-08-25T04:49:57.234Z,85.4
2017-08-25T04:50:56.424Z,85.7
2017-08-25T04:51:55.621Z,85.6
2017-08-25T04:52:54.690Z,85.4
2017-08-25T04:53:54.145Z,85.2
2017-08-25T04:54:53.216Z,85.3
2017-08-25T04:55:52.795Z,85.2
2017-08-25T04:56:52.463Z,85.2
2017-08-25T04:57:51.124Z,86
2017-08-25T04:58:50.301Z,85.6
2017-08-25T04:59:49.498Z,85.2
2017-08-25T05:00:48.710Z,85.2
2017-08-25T05:01:48.035Z,85.1
2017-08-25T05:02:47.488Z,85.1
2017-08-25T05:03:46.873Z,85.1
2017-08-25T05:04:46.182Z,85
2017-08-25T05:05:45.372Z,85.3
2017-08-25T05:06:44.820Z,85.4
2017-08-25T05:07:44.016Z,85
2017-08-25T05:08:43.079Z,84.8
2017-08-25T05:09:42.522Z,84.8
2017-08-25T05:10:41.335Z,84.6
2017-08-25T05:11:40.658Z,84.7
2017-08-25T05:12:40.100Z,84.6
2017-08-25T05:13:39.421Z,85
2017-08-25T05:14:38.614Z,84.9
2017-08-25T05:26:29.697Z,86.2
2017-08-25T05:27:29.011Z,85.9
2017-08-25T05:33:24.787Z,86.3
2017-08-25T05:44:16.607Z,86.3
2017-08-25T05:44:47.111Z,86.3
2017-08-25T05:47:14.497Z,86
2017-08-25T05:49:13.199Z,85.9
2017-08-25T05:58:06.878Z,85.4
2017-08-25T05:59:06.063Z,85.3
2017-08-25T06:01:04.522Z,85.4
2017-08-25T06:04:02.365Z,85.6
2017-08-25T06:06:59.964Z,85.4
2017-08-25T06:07:59.292Z,85.2
2017-08-25T06:08:58.855Z,84.8
2017-08-25T06:09:57.681Z,84.8
2017-08-25T06:10:57.246Z,84.7
2017-08-25T06:11:56.681Z,84.6
2017-08-25T06:12:55.486Z,84.9
2017-08-25T06:15:53.215Z,84.8
2017-08-25T06:18:51.300Z,84.1
2017-08-25T06:19:50.494Z,83.7
2017-08-25T06:20:49.666Z,83.5
2017-08-25T06:21:49.246Z,83.5
2017-08-25T06:22:48.676Z,83.8
2017-08-25T06:25:46.025Z,82.8
2017-08-25T06:26:16.396Z,82.8
2017-08-25T06:26:46.654Z,81.8
2017-08-25T06:27:17.019Z,81.8
2017-08-25T06:28:44.018Z,82
2017-08-25T06:29:43.467Z,82
2017-08-25T06:31:41.665Z,81.2
2017-08-25T06:32:41.269Z,81
2017-08-25T06:34:39.722Z,81
2017-08-25T06:35:39.184Z,80.5
2017-08-25T06:36:37.986Z,80.4
2017-08-25T06:37:37.298Z,80.1
2017-08-25T06:38:36.751Z,79.8
2017-08-25T06:39:36.207Z,79.4
2017-08-25T06:41:34.910Z,79.3
2017-08-25T06:42:33.981Z,79.4
2017-08-25T06:44:32.317Z,79.2
2017-08-25T06:45:31.633Z,79.2
2017-08-25T06:46:31.074Z,79.6
2017-08-25T06:47:30.393Z,79.5
2017-08-25T06:48:29.573Z,79.7
2017-08-25T06:49:28.883Z,79.7
2017-08-25T06:50:28.190Z,79.8
2017-08-25T06:51:27.367Z,80.1
2017-08-25T06:52:26.936Z,79.7
2017-08-25T06:53:26.002Z,79.2
2017-08-25T06:54:25.321Z,79.6
2017-08-25T06:55:24.760Z,79.7
2017-08-25T06:57:22.971Z,79.7
2017-08-25T06:58:22.415Z,78.7
2017-08-25T07:00:21.127Z,79.4
2017-08-25T07:01:20.568Z,80
2017-08-25T07:04:18.161Z,79.1
2017-08-25T07:05:17.492Z,79.6
2017-08-25T07:06:16.931Z,79.3
2017-08-25T07:07:16.114Z,79
2017-08-25T07:09:14.821Z,78.6
2017-08-25T07:10:14.029Z,78.8
2017-08-25T07:11:13.225Z,78.7
2017-08-25T07:12:12.290Z,78.6
2017-08-25T07:16:09.897Z,78.3
2017-08-25T07:17:09.201Z,78.6
2017-08-25T07:18:08.132Z,78.2
2017-08-25T07:19:07.570Z,78.2
2017-08-25T07:21:06.034Z,77.3
2017-08-25T07:24:04.258Z,77.7
2017-08-25T07:25:03.209Z,76.7
2017-08-25T07:27:01.928Z,76.9
2017-08-25T07:29:00.640Z,77.8
2017-08-25T07:30:00.068Z,77.3
2017-08-25T07:31:58.776Z,77
2017-08-25T07:32:57.840Z,76.2
2017-08-25T07:34:56.314Z,76.9
2017-08-25T07:35:55.629Z,76.4
2017-08-25T07:36:54.951Z,76.3
2017-08-25T07:37:54.516Z,75.8
2017-08-25T07:39:52.585Z,74.6
2017-08-25T07:40:52.276Z,74.9
2017-08-25T07:43:50.240Z,75.4
2017-08-25T07:45:48.829Z,75.9
2017-08-25T07:46:48.267Z,76
2017-08-25T07:48:46.340Z,75.4
2017-08-25T07:50:45.301Z,74.6
2017-08-25T07:54:42.659Z,73.6
2017-08-25T07:55:41.729Z,73.7
2017-08-25T07:57:40.312Z,72.3
2017-08-25T07:58:40.012Z,72.1
2017-08-25T08:02:36.980Z,72.4
2017-08-25T08:03:36.405Z,72.2
2017-08-25T08:04:06.907Z,72.2
2017-08-25T08:05:35.034Z,72.1
2017-08-25T08:08:32.882Z,71.8
2017-08-25T08:11:30.969Z,72.2
2017-08-25T08:12:30.027Z,72.3
2017-08-25T08:13:29.593Z,71.4
2017-08-25T08:17:26.694Z,70
2017-08-25T08:18:26.150Z,70.2
2017-08-25T08:21:24.249Z,69.9
2017-08-25T08:22:23.200Z,70.3
2017-08-25T08:23:23.016Z,69.6
2017-08-25T08:25:21.207Z,69.8
2017-08-25T08:26:20.780Z,70.1
2017-08-25T08:27:19.967Z,70.2
2017-08-25T08:28:19.404Z,70.9
2017-08-25T08:29:18.991Z,69.4
2017-08-25T08:31:17.569Z,69.6
2017-08-25T08:34:15.533Z,69.5
2017-08-25T08:35:14.608Z,70.3
2017-08-25T08:36:14.030Z,70
2017-08-25T08:37:13.343Z,69.9
2017-08-25T08:39:12.164Z,69.5
2017-08-25T08:41:11.011Z,69.8
2017-08-25T08:42:09.953Z,69.2
2017-08-25T08:43:09.264Z,69
2017-08-25T08:44:08.722Z,68.7
2017-08-25T08:45:07.920Z,69
2017-08-25T08:48:06.377Z,68.8
2017-08-25T08:49:05.568Z,68.4
2017-08-25T08:50:04.872Z,68.4
2017-08-25T08:51:04.313Z,69.3
2017-08-25T08:52:03.365Z,68.6
2017-08-25T08:53:02.546Z,68.2
2017-08-25T08:56:00.760Z,66.8
2017-08-25T08:57:00.075Z,66.6
2017-08-25T08:57:59.643Z,66.9
2017-08-25T08:58:58.835Z,67.2
2017-08-25T09:01:56.804Z,66.9
2017-08-25T09:02:56.376Z,67.7
2017-08-25T09:04:54.838Z,67.9
2017-08-25T09:05:54.151Z,67.9
2017-08-25T09:06:53.519Z,67.5
2017-08-25T09:07:53.214Z,66.6
2017-08-25T09:08:52.525Z,66.3
2017-08-25T09:10:51.102Z,66.7
2017-08-25T09:11:50.550Z,67.3
2017-08-25T09:12:49.605Z,67
2017-08-25T09:13:49.062Z,66.8
2017-08-25T09:16:47.161Z,67.9
2017-08-25T09:17:46.481Z,67.3
2017-08-25T09:18:45.924Z,67.4
2017-08-25T09:19:45.370Z,67.6
2017-08-25T09:20:44.561Z,68.3
2017-08-25T09:21:43.748Z,67.3
2017-08-25T09:25:41.730Z,68
2017-08-25T09:30:38.095Z,66.4
2017-08-25T09:31:37.526Z,66
2017-08-25T09:32:36.850Z,65.6
2017-08-25T09:33:36.283Z,66.7
2017-08-25T09:38:33.282Z,64.3
2017-08-25T09:39:32.468Z,64.5
2017-08-25T09:41:31.417Z,65.5
2017-08-25T09:42:30.840Z,64.1
2017-08-25T09:43:30.031Z,64.7
2017-08-25T09:46:28.376Z,63.1
2017-08-25T09:49:26.341Z,62.1
2017-08-25T09:50:25.917Z,62
2017-08-25T09:52:24.367Z,62.7
2017-08-25T09:55:22.460Z,63
2017-08-25T09:58:20.934Z,62.4
2017-08-25T09:59:19.873Z,61.9
2017-08-25T10:01:18.715Z,61.8
2017-08-25T10:02:18.415Z,62.2
2017-08-25T10:03:17.480Z,61.7
2017-08-25T10:04:16.805Z,61.5
2017-08-25T10:05:16.493Z,61.1
2017-08-25T10:06:15.680Z,60.6
2017-08-25T10:07:15.126Z,61.6
2017-08-25T10:09:13.842Z,58.2
2017-08-25T10:10:13.028Z,57.7
2017-08-25T10:11:12.476Z,56.9
2017-08-25T10:12:12.174Z,57.3
2017-08-25T10:14:10.757Z,59.2
2017-08-25T10:15:10.327Z,58.9
2017-08-25T10:16:09.644Z,59.3
2017-08-25T10:17:09.086Z,57.5
2017-08-25T10:18:08.016Z,57.8
2017-08-25T10:19:07.830Z,60.1
2017-08-25T10:20:07.376Z,58
2017-08-25T10:22:06.082Z,58.2
2017-08-25T10:25:04.056Z,57.9
2017-08-25T10:26:03.375Z,56.6
2017-08-25T10:27:03.061Z,57
2017-08-25T10:28:02.499Z,56.2
2017-08-25T10:29:01.678Z,56
2017-08-25T10:30:01.107Z,56
2017-08-25T10:32:59.452Z,56.9
2017-08-25T10:33:58.796Z,57.5
2017-08-25T10:34:57.983Z,58
2017-08-25T10:35:57.562Z,56.7
2017-08-25T10:36:56.623Z,56.1
2017-08-25T10:37:56.311Z,56.6
2017-08-25T10:38:55.879Z,56.7
2017-08-25T10:40:54.587Z,56.3
2017-08-25T10:41:54.036Z,56
2017-08-25T10:43:52.607Z,56.4
2017-08-25T10:44:52.294Z,56.7
2017-08-25T10:45:51.745Z,57.7
2017-08-25T10:46:50.931Z,57.3
2017-08-25T10:47:50.124Z,57.7
2017-08-25T10:48:49.693Z,56.4
2017-08-25T10:49:49.019Z,55.9
2017-08-25T10:50:48.718Z,53.5
2017-08-25T10:51:48.040Z,53.1
2017-08-25T10:52:47.492Z,53.5
2017-08-25T10:53:46.558Z,54.6
2017-08-25T10:55:45.516Z,54.1
2017-08-25T11:00:42.513Z,50.6
2017-08-25T11:03:40.617Z,51.1
2017-08-25T11:04:40.431Z,50.1
2017-08-25T11:05:39.746Z,49.4
2017-08-25T11:06:39.317Z,51.3
2017-08-25T11:07:38.373Z,50.8
2017-08-25T11:08:37.673Z,51
2017-08-25T11:09:37.485Z,50.4
2017-08-25T11:10:36.673Z,49.3
2017-08-25T11:11:36.243Z,49.5
2017-08-25T11:12:35.684Z,49.9
2017-08-25T11:13:35.257Z,49
2017-08-25T11:16:33.224Z,46.9
2017-08-25T11:19:31.570Z,47.9
2017-08-25T11:21:30.400Z,48
2017-08-25T11:23:29.387Z,48.3
2017-08-25T11:24:28.707Z,48.2
2017-08-25T11:25:28.295Z,48.2
2017-08-25T11:27:27.255Z,48.8
2017-08-25T11:28:26.437Z,48.5
2017-08-25T11:30:25.144Z,49.4
2017-08-25T11:31:24.582Z,48.6
2017-08-25T11:35:22.314Z,46.9
2017-08-25T11:35:52.554Z,46.9
2017-08-25T11:38:20.844Z,47.5
2017-08-25T11:39:20.293Z,47.5
2017-08-25T11:43:18.028Z,46.4
2017-08-25T11:44:17.726Z,47.5
2017-08-25T11:45:16.791Z,47.1
2017-08-25T11:47:15.627Z,46.2
2017-08-25T11:50:14.357Z,46.4
2017-08-25T11:51:13.545Z,47.5
2017-08-25T11:52:12.858Z,47.4
2017-08-25T11:55:11.076Z,46
2017-08-25T11:57:10.360Z,44.8
2017-08-25T11:58:09.680Z,46.6
2017-08-25T11:59:09.243Z,46.5
2017-08-25T12:00:08.569Z,47.1
2017-08-25T12:01:07.887Z,46.5
2017-08-25T12:02:07.330Z,46.3
2017-08-25T12:06:05.318Z,44.6
2017-08-25T12:07:04.796Z,45
2017-08-25T12:08:04.356Z,45.2
2017-08-25T12:10:03.186Z,45.6
2017-08-25T12:11:02.372Z,46.7
2017-08-25T12:13:01.341Z,46.6
2017-08-25T12:14:00.783Z,46.7
2017-08-25T12:15:00.602Z,46.6
2017-08-25T12:15:59.802Z,46.9
2017-08-25T12:16:59.118Z,46.7
2017-08-25T12:17:58.935Z,45.7
2017-08-25T12:18:58.240Z,46.1
2017-08-25T12:19:57.539Z,44.8
2017-08-25T12:20:56.979Z,44.6
2017-08-25T12:21:56.426Z,44.6
2017-08-25T12:22:56.364Z,44.4
2017-08-25T12:23:55.437Z,44.8
2017-08-25T12:24:54.996Z,45.2
2017-08-25T12:26:54.206Z,45.7
2017-08-25T12:27:53.407Z,46
2017-08-25T12:28:53.108Z,45.5
2017-08-25T12:29:23.481Z,45.5
2017-08-25T12:29:53.991Z,44.9
2017-08-25T12:30:24.360Z,44.9
2017-08-25T12:30:54.858Z,46.4
2017-08-25T12:31:25.238Z,46.4
2017-08-25T12:33:50.114Z,45.7
2017-08-25T12:34:49.683Z,46.2
2017-08-25T12:35:48.868Z,45.9
2017-08-25T12:36:48.564Z,45.2
2017-08-25T12:37:48.019Z,45.1
2017-08-25T12:38:47.334Z,45.7
2017-08-25T12:39:47.289Z,44.3
2017-08-25T12:40:46.737Z,45.2
2017-08-25T12:41:17.238Z,45.2
2017-08-25T12:42:45.739Z,45.4
2017-08-25T12:43:45.057Z,45.6
2017-08-25T12:44:44.372Z,45.9
2017-08-25T12:45:43.816Z,47.2
2017-08-25T12:46:43.249Z,45.6
2017-08-25T12:47:42.576Z,44.9
2017-08-25T12:48:42.526Z,47.5
2017-08-25T12:49:41.631Z,45.5
2017-08-25T12:50:41.438Z,46.4
2017-08-25T12:51:40.496Z,44
2017-08-25T12:52:40.314Z,44.9
2017-08-25T12:53:39.660Z,44.8
2017-08-25T12:54:39.111Z,44
2017-08-25T12:55:38.536Z,44.8
2017-08-25T12:56:38.481Z,44
2017-08-25T12:57:37.937Z,44.2
2017-08-25T12:58:37.137Z,44.3
2017-08-25T12:59:36.709Z,46
2017-08-25T13:01:35.680Z,46.9
2017-08-25T13:02:35.134Z,44
2017-08-25T13:03:34.327Z,44.2
2017-08-25T13:04:34.154Z,44.8
2017-08-25T13:05:33.710Z,44.6
2017-08-25T13:06:33.148Z,44.4
2017-08-25T13:07:32.590Z,42
2017-08-25T13:08:31.776Z,43.7
2017-08-25T13:09:31.453Z,44.1
2017-08-25T13:10:30.886Z,43.7
2017-08-25T13:11:30.454Z,43.5
2017-08-25T13:12:29.775Z,44
2017-08-25T13:13:29.725Z,42.8
2017-08-25T13:14:28.673Z,44.1
2017-08-25T13:15:28.607Z,44.1
2017-08-25T13:16:28.041Z,43.5
2017-08-25T13:17:27.630Z,43.5
2017-08-25T13:18:26.947Z,44.9
2017-08-25T13:19:26.398Z,42.5
2017-08-25T13:20:25.845Z,42.8
2017-08-25T13:21:25.536Z,43.2
2017-08-25T13:22:24.851Z,43.9
2017-08-25T13:23:24.541Z,43.6
2017-08-25T13:24:23.977Z,43.3
2017-08-25T13:25:23.290Z,43.1
2017-08-25T13:26:23.103Z,43.5
2017-08-25T13:27:22.557Z,43.8
2017-08-25T13:28:21.881Z,43.7
2017-08-25T13:29:21.564Z,43.4
2017-08-25T13:30:20.872Z,44.4
2017-08-25T13:31:20.456Z,43
2017-08-25T13:32:19.906Z,43.8
2017-08-25T13:34:18.987Z,43.6
2017-08-25T13:35:18.311Z,43.2
2017-08-25T13:36:18.131Z,43.1
2017-08-25T13:37:17.321Z,43.7
2017-08-25T13:38:16.766Z,43.8
2017-08-25T13:38:47.395Z,43.8
2017-08-25T13:39:17.771Z,42.5
2017-08-25T13:39:47.908Z,42.5
2017-08-25T13:41:15.428Z,43.3
2017-08-25T13:43:14.497Z,43.8
2017-08-25T13:44:14.214Z,43.6
2017-08-25T13:45:13.896Z,45.6
2017-08-25T13:46:13.080Z,43.4
2017-08-25T13:47:12.915Z,43.7
2017-08-25T13:49:11.867Z,42.4
2017-08-25T13:50:11.180Z,42.8
2017-08-25T13:51:10.871Z,43.1
2017-08-25T13:52:10.432Z,43
2017-08-25T13:53:09.885Z,42.4
2017-08-25T13:54:08.949Z,42
2017-08-25T13:58:07.190Z,43.5
2017-08-25T14:05:04.215Z,45.4
2017-08-25T14:07:03.049Z,43.7
2017-08-25T14:08:02.500Z,44
2017-08-25T14:10:01.586Z,43.7
2017-08-25T14:12:00.934Z,46.2
2017-08-25T14:12:31.307Z,46.2
2017-08-25T14:13:01.685Z,42.3
2017-08-25T14:16:58.658Z,42.4
2017-08-25T14:17:57.977Z,41.5
2017-08-25T14:18:57.549Z,43.6
2017-08-25T14:28:52.872Z,43.9
2017-08-25T14:30:52.092Z,43.4
2017-08-25T14:31:51.408Z,43.6
2017-08-25T14:33:50.613Z,44.1
2017-08-25T14:39:47.637Z,41.9
2017-08-25T14:44:45.533Z,43.4
2017-08-25T14:45:45.100Z,42.9
2017-08-25T14:51:42.249Z,44.9
2017-08-25T14:57:39.516Z,44
2017-08-25T14:58:39.081Z,43
2017-08-25T16:18:59.972Z,48.8
2017-08-25T16:20:59.065Z,50.3
2017-08-25T16:21:58.510Z,46.9
2017-08-25T16:23:57.206Z,48.8
2017-08-25T16:36:50.582Z,47.3
2017-08-25T16:38:49.789Z,47.6
2017-08-25T16:39:49.224Z,47.7
2017-08-25T16:40:48.906Z,48.4
2017-08-25T16:41:48.095Z,48.9
2017-08-25T16:45:46.581Z,47.4
2017-08-25T16:48:44.557Z,47.7
2017-08-25T16:49:44.370Z,47.7
2017-08-25T16:50:43.818Z,47.7
2017-08-25T16:51:43.374Z,47.6
2017-08-25T16:52:42.680Z,47.8
2017-08-25T16:53:42.494Z,47.3
2017-08-25T16:54:41.816Z,47.5
2017-08-25T16:55:41.146Z,47.7
2017-08-25T16:56:40.831Z,51.3
2017-08-25T16:57:39.888Z,48.5
2017-08-25T16:58:39.570Z,48
2017-08-25T16:59:38.879Z,47.3
2017-08-25T17:00:38.696Z,47.9
2017-08-25T17:01:37.902Z,51.8
2017-08-25T17:02:37.838Z,50.3
2017-08-25T17:03:36.900Z,50
2017-08-25T17:04:36.341Z,49.2
2017-08-25T17:05:36.283Z,50
2017-08-25T17:06:35.475Z,50.7
2017-08-25T17:07:34.802Z,53.4
2017-08-25T17:08:34.372Z,49.1
2017-08-25T17:09:33.818Z,49
2017-08-25T17:10:33.369Z,54.2
2017-08-25T17:11:32.921Z,54.4
2017-08-25T17:12:32.482Z,53.7
2017-08-25T17:13:31.929Z,55
2017-08-25T17:14:31.373Z,56.9
2017-08-25T17:15:30.701Z,57.4
2017-08-25T17:16:00.956Z,57.4
2017-08-25T17:16:31.217Z,56.3
2017-08-25T17:17:01.715Z,56.3
2017-08-25T17:17:32.211Z,51.7
2017-08-25T17:18:02.583Z,51.7
2017-08-25T17:18:32.833Z,56.6
2017-08-25T17:19:03.335Z,56.6
2017-08-25T17:19:33.589Z,53.3
2017-08-25T17:22:27.146Z,56.5
2017-08-25T17:23:26.602Z,57.9
2017-08-25T17:24:25.674Z,56.9
2017-08-25T17:25:25.486Z,58.7
2017-08-25T17:26:24.802Z,58
2017-08-25T17:27:24.244Z,59.1
2017-08-25T17:28:23.554Z,59.3
2017-08-25T17:29:23.500Z,59.5
2017-08-25T17:30:22.951Z,60.6
2017-08-25T17:31:22.020Z,60.4
2017-08-25T17:32:22.317Z,61.4
2017-08-25T17:33:21.389Z,62.7
2017-08-25T17:35:20.220Z,62.1
2017-08-25T17:36:19.673Z,62.8
2017-08-25T17:37:19.117Z,62.7
2017-08-25T17:38:18.431Z,63.6
2017-08-25T17:39:17.995Z,63.2
2017-08-25T17:41:16.956Z,63.3
2017-08-25T17:42:15.908Z,63.9
2017-08-25T17:43:15.605Z,64.4
2017-08-25T17:44:15.176Z,63.8
2017-08-25T17:45:14.410Z,63.3
2017-08-25T17:46:13.861Z,62.8
2017-08-25T17:47:13.557Z,63.9
2017-08-25T17:48:13.006Z,63.5
2017-08-25T17:49:12.075Z,63
2017-08-25T17:50:11.646Z,62.6
2017-08-25T17:51:10.967Z,63
2017-08-25T17:52:10.783Z,63
2017-08-25T17:53:10.216Z,63.3
2017-08-25T17:54:09.533Z,64
2017-08-25T17:55:08.599Z,64.2
2017-08-25T17:56:08.422Z,63.6
2017-08-25T17:57:07.617Z,63.7
2017-08-25T17:58:07.437Z,63.9
2017-08-25T17:59:06.889Z,64.2
2017-08-25T18:01:05.339Z,64.6
2017-08-25T18:02:05.168Z,64.5
2017-08-25T18:03:04.115Z,64.8
2017-08-25T18:05:03.202Z,66.3
2017-08-25T18:07:02.040Z,65.1
2017-08-25T18:08:01.751Z,65.3
2017-08-25T18:09:00.940Z,65.2
2017-08-25T18:10:00.379Z,64.8
2017-08-25T18:10:30.759Z,64.8
2017-08-25T18:11:59.154Z,65
2017-08-25T18:12:29.403Z,65
2017-08-25T18:13:00.043Z,65.9
2017-08-25T18:13:57.856Z,66.3
2017-08-25T18:14:57.557Z,66.6
2017-08-25T18:17:55.532Z,66.7
2017-08-25T18:19:54.234Z,66.5
2017-08-25T18:20:53.927Z,67.2
2017-08-25T18:21:53.387Z,67
2017-08-25T18:22:52.938Z,67.2
2017-08-25T18:23:52.267Z,68.4
2017-08-25T18:24:51.463Z,67.3
2017-08-25T18:26:50.550Z,68
2017-08-25T18:27:50.025Z,67.9
2017-08-25T18:28:49.084Z,68.1
2017-08-25T18:29:48.399Z,68.8
2017-08-25T18:30:47.720Z,68.9
2017-08-25T18:31:47.157Z,69.4
2017-08-25T18:32:46.858Z,68.6
2017-08-25T18:33:46.192Z,68.5
2017-08-25T18:34:45.505Z,68.7
2017-08-25T18:35:45.198Z,68.8
2017-08-25T18:36:44.139Z,69.3
2017-08-25T18:37:43.702Z,69.1
2017-08-25T18:38:43.145Z,69.1
2017-08-25T18:39:42.606Z,71.3
2017-08-25T18:40:41.953Z,70.8
2017-08-25T18:41:41.671Z,70.6
2017-08-25T18:42:40.743Z,70.8
2017-08-25T18:43:40.340Z,70.5
2017-08-25T18:44:39.659Z,71.5
2017-08-25T18:45:38.969Z,71.9